Time;durP1;ratioP1;P1;durP2;ratioP2;P2;SDS_P1;SDS_P2;PMS_P1;PMS_P2;Temp;Humidity;BMP_temperature;BMP_pressure;BME280_temperature;BME280_humidity;BME280_pressure;Samples;Min_cycle;Max_cycle;Signal;HPM_P1;HPM_P2
2022/06/03 00:02:29;;;;;;;2.72;1.83;;;;;;;;;;5037913;28;20025;-50
2022/06/03 00:05:12;;;;;;;4.80;2.03;;;;;;;;;;5044511;28;20041;-53
2022/06/03 00:07:38;;;;;;;2.47;1.70;;;;;;;;;;5053651;28;20052;-54
2022/06/03 00:10:06;;;;;;;3.45;1.92;;;;;;;;;;5045631;28;20397;-52
2022/06/03 00:12:44;;;;;;;2.42;1.80;;;;;;;;;;5039823;28;20372;-50
2022/06/03 00:15:14;;;;;;;4.03;2.45;;;;;;;;;;5040983;28;20370;-52
2022/06/03 00:17:43;;;;;;;2.83;2.10;;;;;;;;;;5037455;28;20465;-52
2022/06/03 00:20:12;;;;;;;4.10;1.60;;;;;;;;;;5032884;28;20143;-51
2022/06/03 00:22:38;;;;;;;3.38;2.50;;;;;;;;;;5042459;28;20025;-51
2022/06/03 00:25:23;;;;;;;2.45;1.63;;;;;;;;;;5028522;28;20735;-50
2022/06/03 00:28:01;;;;;;;2.53;1.80;;;;;;;;;;5040916;28;20029;-51
2022/06/03 00:30:44;;;;;;;3.97;2.13;;;;;;;;;;5032392;28;20452;-52
2022/06/03 00:33:17;;;;;;;3.47;2.00;;;;;;;;;;5035003;28;20022;-52
2022/06/03 00:35:49;;;;;;;3.20;2.15;;;;;;;;;;5038418;28;20029;-52
2022/06/03 00:38:34;;;;;;;3.15;2.10;;;;;;;;;;5042016;28;20025;-50
2022/06/03 00:41:05;;;;;;;2.38;2.17;;;;;;;;;;5038219;28;20029;-53
2022/06/03 00:43:40;;;;;;;3.67;2.30;;;;;;;;;;5036916;28;20033;-49
2022/06/03 00:46:22;;;;;;;2.78;2.08;;;;;;;;;;5040708;28;20031;-53
2022/06/03 00:49:08;;;;;;;2.22;1.95;;;;;;;;;;5034582;28;20059;-50
2022/06/03 00:51:53;;;;;;;2.35;2.15;;;;;;;;;;5035804;28;20033;-52
2022/06/03 00:54:31;;;;;;;3.88;2.38;;;;;;;;;;5034678;28;20068;-50
2022/06/03 00:57:03;;;;;;;3.00;2.25;;;;;;;;;;5032329;28;20416;-53
2022/06/03 00:59:38;;;;;;;2.38;1.85;;;;;;;;;;5033981;28;20030;-50
2022/06/03 01:02:23;;;;;;;3.97;2.38;;;;;;;;;;5043342;28;20108;-51
2022/06/03 01:04:55;;;;;;;2.85;2.17;;;;;;;;;;5035859;28;20653;-54
2022/06/03 01:07:41;;;;;;;2.65;1.73;;;;;;;;;;5039470;28;20053;-53
2022/06/03 01:10:27;;;;;;;2.63;1.98;;;;;;;;;;5028254;28;20048;-54
2022/06/03 01:13:05;;;;;;;2.28;1.90;;;;;;;;;;5034852;28;20033;-53
2022/06/03 01:15:41;;;;;;;2.95;2.17;;;;;;;;;;5040708;28;20037;-54
2022/06/03 01:18:26;;;;;;;2.78;2.00;;;;;;;;;;5043820;28;20151;-53
2022/06/03 01:21:07;;;;;;;1.90;1.70;;;;;;;;;;5050592;28;20111;-54
2022/06/03 01:23:33;;;;;;;3.38;1.88;;;;;;;;;;5044613;28;20033;-51
2022/06/03 01:26:17;;;;;;;5.40;1.90;;;;;;;;;;5030094;28;20439;-51
2022/06/03 01:28:55;;;;;;;2.15;1.90;;;;;;;;;;5030312;28;20484;-53
2022/06/03 01:31:33;;;;;;;8.52;2.17;;;;;;;;;;5037983;28;20059;-53
2022/06/03 01:34:02;;;;;;;2.30;2.10;;;;;;;;;;5035454;28;20022;-51
2022/06/03 01:36:54;;;;;;;3.05;2.30;;;;;;;;;;5036914;28;20033;-53
2022/06/03 01:39:26;;;;;;;3.97;1.85;;;;;;;;;;5037797;28;20021;-51
2022/06/03 01:42:15;;;;;;;2.83;2.13;;;;;;;;;;5041767;28;20021;-54
2022/06/03 01:44:41;;;;;;;2.50;2.08;;;;;;;;;;5033301;28;20438;-52
2022/06/03 01:47:35;;;;;;;2.20;2.00;;;;;;;;;;5031022;28;20608;-54
2022/06/03 01:50:20;;;;;;;2.22;1.83;;;;;;;;;;5038106;28;20558;-52
2022/06/03 01:53:00;;;;;;;2.78;2.15;;;;;;;;;;5045988;28;20028;-54
2022/06/03 01:56:05;;;;;;;2.63;2.08;;;;;;;;;;5036714;28;20033;-51
2022/06/03 01:58:49;;;;;;;2.95;2.22;;;;;;;;;;4944787;28;20032;-51
2022/06/03 02:01:33;;;;;;;2.92;1.83;;;;;;;;;;4940711;28;20066;-51
2022/06/03 02:04:21;;;;;;;2.25;2.05;;;;;;;;;;5012204;28;20048;-53
2022/06/03 02:07:05;;;;;;;1.92;1.73;;;;;;;;;;5045024;28;20029;-52
2022/06/03 02:09:31;;;;;;;5.60;1.83;;;;;;;;;;5037025;28;20037;-54
2022/06/03 02:12:02;;;;;;;2.08;1.85;;;;;;;;;;5040839;28;20025;-51
2022/06/03 02:14:46;;;;;;;2.22;1.75;;;;;;;;;;5046495;28;20028;-52
2022/06/03 02:17:25;;;;;;;6.68;1.98;;;;;;;;;;5032027;28;20034;-50
2022/06/03 02:20:23;;;;;;;3.25;2.00;;;;;;;;;;5033207;28;20029;-50
2022/06/03 02:23:04;;;;;;;2.40;1.80;;;;;;;;;;5037568;28;20144;-51
2022/06/03 02:25:48;;;;;;;3.22;1.90;;;;;;;;;;5032827;28;20131;-51
2022/06/03 02:28:23;;;;;;;2.90;2.15;;;;;;;;;;5039150;28;20099;-53
2022/06/03 02:30:55;;;;;;;2.67;2.22;;;;;;;;;;5042351;28;20033;-51
2022/06/03 02:33:48;;;;;;;2.85;2.17;;;;;;;;;;5045291;28;20108;-50
2022/06/03 02:36:33;;;;;;;2.78;2.20;;;;;;;;;;5034829;28;20432;-51
2022/06/03 02:39:13;;;;;;;2.30;2.05;;;;;;;;;;5041793;28;20032;-51
2022/06/03 02:41:51;;;;;;;2.50;2.00;;;;;;;;;;5041863;28;20108;-54
2022/06/03 02:44:42;;;;;;;3.08;2.40;;;;;;;;;;5046895;28;20036;-51
2022/06/03 02:47:28;;;;;;;3.03;2.40;;;;;;;;;;5046735;28;20033;-51
2022/06/03 02:50:13;;;;;;;2.92;2.22;;;;;;;;;;5032979;28;20033;-50
2022/06/03 02:52:50;;;;;;;2.45;2.08;;;;;;;;;;5041813;28;20029;-51
2022/06/03 02:55:16;;;;;;;3.40;2.30;;;;;;;;;;5030311;28;20109;-51
2022/06/03 02:58:01;;;;;;;2.55;2.08;;;;;;;;;;5034794;28;20029;-51
2022/06/03 03:00:47;;;;;;;3.72;2.03;;;;;;;;;;5042766;28;20025;-52
2022/06/03 03:03:28;;;;;;;5.55;2.22;;;;;;;;;;5049140;28;20037;-51
2022/06/03 03:06:23;;;;;;;3.33;2.38;;;;;;;;;;5042237;28;20028;-52
2022/06/03 03:09:08;;;;;;;4.10;2.05;;;;;;;;;;5033102;28;20041;-51
2022/06/03 03:11:54;;;;;;;3.05;2.35;;;;;;;;;;5042444;28;20052;-51
2022/06/03 03:14:59;;;;;;;3.05;1.98;;;;;;;;;;5039095;28;20055;-51
2022/06/03 03:17:43;;;;;;;5.32;2.30;;;;;;;;;;4945508;28;20066;-51
2022/06/03 03:20:27;;;;;;;6.65;2.08;;;;;;;;;;4945701;28;20059;-50
2022/06/03 03:22:59;;;;;;;2.88;2.25;;;;;;;;;;5006108;28;20048;-52
2022/06/03 03:25:36;;;;;;;2.38;1.63;;;;;;;;;;5040561;28;20037;-52
2022/06/03 03:28:17;;;;;;;3.33;2.30;;;;;;;;;;5046238;28;20064;-51
2022/06/03 03:30:49;;;;;;;2.53;1.95;;;;;;;;;;5033346;28;20049;-51
2022/06/03 03:33:44;;;;;;;2.83;2.28;;;;;;;;;;5041845;28;20029;-51
2022/06/03 03:36:25;;;;;;;2.42;2.10;;;;;;;;;;5051353;28;20448;-51
2022/06/03 03:39:10;;;;;;;4.03;2.50;;;;;;;;;;5045413;28;20580;-50
2022/06/03 03:41:48;;;;;;;2.45;1.88;;;;;;;;;;5043644;28;20030;-53
2022/06/03 03:44:26;;;;;;;4.72;2.50;;;;;;;;;;5043792;28;20036;-51
2022/06/03 03:47:02;;;;;;;2.75;2.35;;;;;;;;;;5046618;28;20036;-51
2022/06/03 03:49:47;;;;;;;2.90;2.05;;;;;;;;;;5038423;28;20049;-53
2022/06/03 03:52:22;;;;;;;2.75;2.35;;;;;;;;;;5043889;28;20037;-51
2022/06/03 03:55:06;;;;;;;3.60;2.40;;;;;;;;;;5037274;28;20033;-54
2022/06/03 03:57:48;;;;;;;3.03;2.20;;;;;;;;;;5039128;28;20029;-50
2022/06/03 04:00:33;;;;;;;3.78;2.50;;;;;;;;;;5035458;28;20029;-52
2022/06/03 04:03:10;;;;;;;3.05;2.75;;;;;;;;;;5040823;28;20034;-51
2022/06/03 04:05:45;;;;;;;5.15;2.38;;;;;;;;;;5019121;28;20120;-50
2022/06/03 04:08:25;;;;;;;5.32;2.60;;;;;;;;;;5042512;28;20053;-51
2022/06/03 04:11:10;;;;;;;3.35;2.58;;;;;;;;;;5042638;28;20029;-50
2022/06/03 04:13:51;;;;;;;4.35;2.65;;;;;;;;;;5037002;28;20037;-52
2022/06/03 04:16:17;;;;;;;2.97;2.50;;;;;;;;;;5041023;28;20025;-50
2022/06/03 04:19:00;;;;;;;3.60;2.55;;;;;;;;;;5036312;28;20032;-51
2022/06/03 04:21:48;;;;;;;2.65;1.90;;;;;;;;;;5028596;28;20184;-52
2022/06/03 04:24:32;;;;;;;2.55;2.17;;;;;;;;;;5042630;28;20542;-51
2022/06/03 04:27:22;;;;;;;3.75;2.45;;;;;;;;;;5040579;28;20033;-51
2022/06/03 04:30:06;;;;;;;2.90;2.17;;;;;;;;;;5043768;28;20036;-51
2022/06/03 04:32:47;;;;;;;3.38;2.03;;;;;;;;;;5027379;28;20026;-54
2022/06/03 04:35:29;;;;;;;3.42;2.17;;;;;;;;;;5038562;28;20041;-51
2022/06/03 04:38:13;;;;;;;2.88;2.40;;;;;;;;;;5044329;28;20029;-51
2022/06/03 04:41:06;;;;;;;2.80;2.50;;;;;;;;;;5035255;28;20388;-51
2022/06/03 04:43:52;;;;;;;3.20;2.40;;;;;;;;;;5005424;28;20117;-52
2022/06/03 04:46:41;;;;;;;2.90;2.28;;;;;;;;;;5037618;28;20025;-52
2022/06/03 04:49:33;;;;;;;4.78;2.40;;;;;;;;;;5042772;28;20126;-51
2022/06/03 04:52:14;;;;;;;4.28;2.72;;;;;;;;;;5038755;28;20048;-51
2022/06/03 04:54:49;;;;;;;4.45;2.67;;;;;;;;;;5033206;28;20029;-51
2022/06/03 04:57:49;;;;;;;3.05;2.53;;;;;;;;;;5037957;28;20025;-51
2022/06/03 05:00:25;;;;;;;3.92;2.50;;;;;;;;;;5039205;28;20025;-54
2022/06/03 05:03:07;;;;;;;3.38;2.60;;;;;;;;;;5032535;28;20071;-53
2022/06/03 05:05:51;;;;;;;3.92;2.72;;;;;;;;;;5048737;28;20484;-55
2022/06/03 05:08:26;;;;;;;4.80;3.03;;;;;;;;;;5033574;28;20095;-50
2022/06/03 05:11:19;;;;;;;3.42;2.47;;;;;;;;;;5042035;28;20032;-52
2022/06/03 05:13:48;;;;;;;5.35;2.50;;;;;;;;;;5037234;28;20062;-51
2022/06/03 05:16:32;;;;;;;4.13;2.38;;;;;;;;;;5043822;28;20032;-51
2022/06/03 05:18:58;;;;;;;4.07;2.53;;;;;;;;;;5043399;28;20431;-54
2022/06/03 05:21:33;;;;;;;5.00;2.50;;;;;;;;;;5042088;28;20035;-51
2022/06/03 05:24:26;;;;;;;3.50;2.70;;;;;;;;;;5034490;28;20033;-52
2022/06/03 05:27:04;;;;;;;4.75;2.80;;;;;;;;;;5043230;28;20096;-53
2022/06/03 05:29:45;;;;;;;2.83;2.17;;;;;;;;;;5035590;28;20498;-54
2022/06/03 05:32:23;;;;;;;2.95;2.28;;;;;;;;;;5042284;28;20082;-53
2022/06/03 05:35:01;;;;;;;5.25;2.60;;;;;;;;;;5034117;28;20029;-51
2022/06/03 05:37:36;;;;;;;4.03;2.65;;;;;;;;;;5038724;28;20053;-52
2022/06/03 05:40:17;;;;;;;4.25;2.75;;;;;;;;;;5038617;28;20032;-52
2022/06/03 05:42:46;;;;;;;2.95;2.30;;;;;;;;;;5046154;28;20057;-52
2022/06/03 05:45:23;;;;;;;3.60;2.55;;;;;;;;;;5050918;28;20059;-52
2022/06/03 05:47:54;;;;;;;4.28;2.40;;;;;;;;;;5040354;28;20539;-51
2022/06/03 05:50:20;;;;;;;3.13;1.80;;;;;;;;;;5048668;28;20029;-55
2022/06/03 05:53:08;;;;;;;2.92;1.95;;;;;;;;;;5049601;28;20101;-54
2022/06/03 05:55:44;;;;;;;3.05;1.90;;;;;;;;;;5033923;28;20106;-54
2022/06/03 05:58:28;;;;;;;3.28;1.90;;;;;;;;;;5045226;28;20033;-53
2022/06/03 06:01:14;;;;;;;2.95;1.38;;;;;;;;;;5044781;28;20028;-54
2022/06/03 06:03:46;;;;;;;2.45;1.90;;;;;;;;;;5050841;28;20033;-54
2022/06/03 06:06:20;;;;;;;4.47;2.22;;;;;;;;;;5051313;28;20021;-53
2022/06/03 06:08:54;;;;;;;3.47;1.38;;;;;;;;;;5042368;28;20123;-55
2022/06/03 06:11:27;;;;;;;4.68;1.80;;;;;;;;;;5035243;28;20026;-53
2022/06/03 06:14:07;;;;;;;1.67;1.30;;;;;;;;;;5041664;28;20037;-54
2022/06/03 06:16:36;;;;;;;2.20;1.48;;;;;;;;;;5033681;28;20108;-53
2022/06/03 06:19:08;;;;;;;3.10;1.67;;;;;;;;;;5035297;28;20056;-54
2022/06/03 06:21:55;;;;;;;2.92;1.80;;;;;;;;;;5016757;28;20033;-54
2022/06/03 06:24:30;;;;;;;8.07;1.40;;;;;;;;;;5041137;28;20067;-54
2022/06/03 06:27:08;;;;;;;4.00;1.50;;;;;;;;;;5041939;28;20523;-54
2022/06/03 06:29:42;;;;;;;3.45;1.55;;;;;;;;;;5048192;28;20373;-54
2022/06/03 06:32:32;;;;;;;4.75;1.95;;;;;;;;;;5037625;28;20028;-53
2022/06/03 06:35:28;;;;;;;4.07;1.75;;;;;;;;;;5036265;28;20037;-54
2022/06/03 06:38:07;;;;;;;2.72;1.45;;;;;;;;;;5039609;28;20037;-53
2022/06/03 06:40:38;;;;;;;4.22;1.63;;;;;;;;;;5041115;28;20025;-54
2022/06/03 06:43:24;;;;;;;3.38;1.98;;;;;;;;;;5048211;28;20029;-54
2022/06/03 06:46:10;;;;;;;3.97;1.52;;;;;;;;;;5047720;28;20029;-53
2022/06/03 06:48:50;;;;;;;1.80;1.30;;;;;;;;;;5023910;28;20450;-53
2022/06/03 06:51:42;;;;;;;3.08;2.00;;;;;;;;;;5045659;28;20366;-53
2022/06/03 06:54:22;;;;;;;1.92;1.30;;;;;;;;;;5030407;28;20047;-54
2022/06/03 06:56:50;;;;;;;2.58;1.58;;;;;;;;;;5034998;28;20095;-52
2022/06/03 06:59:33;;;;;;;3.40;1.40;;;;;;;;;;5048195;28;20029;-52
2022/06/03 07:01:59;;;;;;;;;;;;;;;;;;5047269;28;20021;-53
2022/06/03 07:04:29;;;;;;;4.43;1.40;;;;;;;;;;5040821;28;19916;-53
2022/06/03 07:07:00;;;;;;;3.13;1.33;;;;;;;;;;5029842;28;20037;-55
2022/06/03 07:09:47;;;;;;;3.38;1.45;;;;;;;;;;5043287;28;20037;-54
2022/06/03 07:12:15;;;;;;;2.67;1.20;;;;;;;;;;5047831;28;20037;-55
2022/06/03 07:14:53;;;;;;;3.28;1.30;;;;;;;;;;5037823;28;20117;-50
2022/06/03 07:20:34;;;;;;;1.95;1.20;;;;;;;;;;5031479;28;20146;-55
2022/06/03 07:23:07;;;;;;;3.13;1.23;;;;;;;;;;5047593;28;20032;-53
2022/06/03 07:25:56;;;;;;;1.93;1.00;;;;;;;;;;5032994;28;20039;-55
2022/06/03 07:28:38;;;;;;;1.95;1.00;;;;;;;;;;5027470;28;20650;-54
2022/06/03 07:31:21;;;;;;;1.30;0.80;;;;;;;;;;5037547;28;20489;-54
2022/06/03 07:33:53;;;;;;;1.60;0.80;;;;;;;;;;5043425;28;20034;-53
2022/06/03 07:36:32;;;;;;;3.42;1.00;;;;;;;;;;5037925;28;20095;-54
2022/06/03 07:39:02;;;;;;;1.33;0.88;;;;;;;;;;5032526;28;20025;-54
2022/06/03 07:41:48;;;;;;;1.05;0.80;;;;;;;;;;5044282;28;20029;-55
2022/06/03 07:44:20;;;;;;;5.68;1.23;;;;;;;;;;5024304;28;20022;-53
2022/06/03 07:47:00;;;;;;;1.45;0.93;;;;;;;;;;5047915;28;20120;-55
2022/06/03 07:49:28;;;;;;;2.15;0.88;;;;;;;;;;5047424;28;20380;-55
2022/06/03 07:51:57;;;;;;;3.30;1.00;;;;;;;;;;5037365;28;20045;-55
2022/06/03 07:54:27;;;;;;;1.17;0.88;;;;;;;;;;5039468;28;20037;-55
2022/06/03 07:57:04;;;;;;;1.33;0.90;;;;;;;;;;5034051;28;20029;-54
2022/06/03 07:59:32;;;;;;;1.35;0.68;;;;;;;;;;5045334;28;20032;-52
2022/06/03 08:02:02;;;;;;;2.03;0.75;;;;;;;;;;5031047;28;20026;-53
2022/06/03 08:04:30;;;;;;;1.98;0.90;;;;;;;;;;5041465;28;20537;-54
2022/06/03 08:12:29;;;;;;;1.50;0.90;;;;;;;;;;5036124;28;20086;-51
2022/06/03 08:14:55;;;;;;;2.10;0.73;;;;;;;;;;5048579;28;20443;-56
2022/06/03 08:17:23;;;;;;;2.00;1.00;;;;;;;;;;5029626;28;20067;-53
2022/06/03 08:19:50;;;;;;;2.58;0.90;;;;;;;;;;5043972;28;20025;-55
2022/06/03 08:22:17;;;;;;;1.17;0.77;;;;;;;;;;5039253;28;20503;-53
2022/06/03 08:24:48;;;;;;;1.92;1.15;;;;;;;;;;5045717;28;20043;-56
2022/06/03 08:27:16;;;;;;;2.03;0.95;;;;;;;;;;5041146;28;20489;-55
2022/06/03 08:29:43;;;;;;;1.90;1.02;;;;;;;;;;5042722;28;20037;-55
2022/06/03 08:32:11;;;;;;;3.13;1.25;;;;;;;;;;5045447;28;20433;-55
2022/06/03 08:34:42;;;;;;;0.88;0.70;;;;;;;;;;5044775;28;20393;-55
2022/06/03 08:37:09;;;;;;;1.85;1.00;;;;;;;;;;5041657;28;20036;-53
2022/06/03 08:39:39;;;;;;;2.60;1.20;;;;;;;;;;5041891;28;20078;-55
2022/06/03 08:42:10;;;;;;;1.20;0.88;;;;;;;;;;5036427;28;20099;-55
2022/06/03 08:44:52;;;;;;;2.15;0.70;;;;;;;;;;5036011;28;20037;-55
2022/06/03 08:47:22;;;;;;;3.97;1.20;;;;;;;;;;5046396;28;20033;-56
2022/06/03 08:49:55;;;;;;;1.73;0.80;;;;;;;;;;5050209;28;20032;-55
2022/06/03 08:52:24;;;;;;;3.45;1.10;;;;;;;;;;5047452;28;20434;-54
2022/06/03 08:54:55;;;;;;;2.97;0.90;;;;;;;;;;5043322;28;20033;-55
2022/06/03 08:57:29;;;;;;;1.17;0.80;;;;;;;;;;5034289;28;20116;-55
2022/06/03 09:00:02;;;;;;;2.92;1.20;;;;;;;;;;5037267;28;20039;-55
2022/06/03 09:02:39;;;;;;;1.00;0.77;;;;;;;;;;5046613;28;20072;-56
2022/06/03 09:05:07;;;;;;;2.42;1.38;;;;;;;;;;5048624;28;20565;-55
2022/06/03 09:07:44;;;;;;;1.70;1.13;;;;;;;;;;5041264;28;20091;-53
2022/06/03 09:10:16;;;;;;;1.38;0.95;;;;;;;;;;5045579;28;20033;-55
2022/06/03 09:12:45;;;;;;;1.35;0.90;;;;;;;;;;5049236;28;20068;-54
2022/06/03 09:15:13;;;;;;;1.23;0.70;;;;;;;;;;5044796;28;20116;-56
2022/06/03 09:17:39;;;;;;;1.52;1.10;;;;;;;;;;5032200;28;20028;-54
2022/06/03 09:20:09;;;;;;;2.10;1.02;;;;;;;;;;5043815;28;20476;-55
2022/06/03 09:22:35;;;;;;;2.45;1.02;;;;;;;;;;5042723;28;20052;-55
2022/06/03 09:25:02;;;;;;;2.42;0.90;;;;;;;;;;5048626;28;20039;-55
2022/06/03 09:27:29;;;;;;;1.20;1.10;;;;;;;;;;5048141;28;20029;-52
2022/06/03 09:29:57;;;;;;;1.38;0.98;;;;;;;;;;5051157;28;20033;-55
2022/06/03 09:32:25;;;;;;;2.50;1.20;;;;;;;;;;5034245;28;20480;-54
2022/06/03 09:34:53;;;;;;;2.78;1.02;;;;;;;;;;5038446;28;20033;-56
2022/06/03 09:37:24;;;;;;;2.45;1.20;;;;;;;;;;5041139;28;20508;-56
2022/06/03 09:39:51;;;;;;;1.15;0.90;;;;;;;;;;5048798;28;20021;-55
2022/06/03 09:42:18;;;;;;;1.10;0.90;;;;;;;;;;5019162;28;20109;-55
2022/06/03 09:44:47;;;;;;;3.22;1.13;;;;;;;;;;5045782;28;20150;-55
2022/06/03 09:47:15;;;;;;;1.95;1.02;;;;;;;;;;5037751;28;20027;-55
2022/06/03 09:49:44;;;;;;;1.50;1.15;;;;;;;;;;5046965;28;20787;-55
2022/06/03 09:52:12;;;;;;;1.20;0.85;;;;;;;;;;5041477;28;20613;-56
2022/06/03 09:54:40;;;;;;;2.28;1.00;;;;;;;;;;5050229;28;20469;-55
2022/06/03 09:57:14;;;;;;;1.90;0.98;;;;;;;;;;5032712;28;20029;-55
2022/06/03 09:59:44;;;;;;;2.15;1.00;;;;;;;;;;5036450;28;20134;-55
2022/06/03 10:02:10;;;;;;;1.60;1.13;;;;;;;;;;5042915;28;20029;-55
2022/06/03 10:04:36;;;;;;;2.15;0.82;;;;;;;;;;5047135;28;20028;-55
2022/06/03 10:07:02;;;;;;;1.92;0.93;;;;;;;;;;5036070;28;20037;-56
2022/06/03 10:17:49;;;;;;;0.93;0.70;;;;;;;;;;5034275;28;20083;-56
2022/06/03 10:20:15;;;;;;;1.10;0.70;;;;;;;;;;5028771;28;20439;-56
2022/06/03 10:22:44;;;;;;;2.10;1.17;;;;;;;;;;5042860;28;20017;-54
2022/06/03 10:25:10;;;;;;;0.68;0.63;;;;;;;;;;5039250;28;20040;-55
2022/06/03 10:27:36;;;;;;;2.58;1.08;;;;;;;;;;5042769;28;20095;-55
2022/06/03 10:30:05;;;;;;;2.15;1.20;;;;;;;;;;5046201;28;20028;-55
2022/06/03 10:32:30;;;;;;;1.45;0.80;;;;;;;;;;5023294;28;20036;-53
2022/06/03 10:35:05;;;;;;;2.03;0.90;;;;;;;;;;5045637;28;20544;-56
2022/06/03 10:37:31;;;;;;;1.73;0.70;;;;;;;;;;5041516;28;20057;-53
2022/06/03 10:39:57;;;;;;;2.60;0.60;;;;;;;;;;5037076;28;20110;-56
2022/06/03 10:42:23;;;;;;;1.23;0.60;;;;;;;;;;5047562;28;20025;-55
2022/06/03 10:44:51;;;;;;;1.05;0.90;;;;;;;;;;5045299;28;20029;-56
2022/06/03 10:47:19;;;;;;;4.13;0.80;;;;;;;;;;5045405;28;20033;-54
2022/06/03 10:49:52;;;;;;;1.23;0.70;;;;;;;;;;5052317;28;20029;-55
2022/06/03 11:01:08;;;;;;;1.67;0.90;;;;;;;;;;5046359;28;20031;-54
2022/06/03 11:03:37;;;;;;;1.08;0.80;;;;;;;;;;5034642;28;20529;-56
2022/06/03 11:06:07;;;;;;;0.73;0.60;;;;;;;;;;5040694;28;20033;-56
2022/06/03 11:08:47;;;;;;;1.08;0.80;;;;;;;;;;5045978;28;20053;-55
2022/06/03 11:11:13;;;;;;;3.67;0.75;;;;;;;;;;5037097;28;20028;-55
2022/06/03 11:13:40;;;;;;;2.78;0.80;;;;;;;;;;5049351;28;20037;-55
2022/06/03 11:16:14;;;;;;;1.65;0.80;;;;;;;;;;5032678;28;20033;-56
2022/06/03 11:18:41;;;;;;;1.02;0.60;;;;;;;;;;5043218;28;20022;-55
2022/06/03 11:21:26;;;;;;;5.03;1.02;;;;;;;;;;5047162;28;20108;-55
2022/06/03 11:23:53;;;;;;;1.75;1.00;;;;;;;;;;5037180;28;20028;-55
2022/06/03 11:26:19;;;;;;;3.70;0.80;;;;;;;;;;5044742;28;20112;-55
2022/06/03 11:29:15;;;;;;;0.95;0.80;;;;;;;;;;5050600;28;20102;-54
2022/06/03 11:31:42;;;;;;;2.20;0.90;;;;;;;;;;5017581;28;20065;-54
2022/06/03 11:34:22;;;;;;;1.33;0.98;;;;;;;;;;5045576;28;20045;-54
2022/06/03 11:36:57;;;;;;;2.13;0.80;;;;;;;;;;5044253;28;20021;-55
2022/06/03 11:39:36;;;;;;;1.83;1.05;;;;;;;;;;5041705;28;20025;-55
2022/06/03 11:42:07;;;;;;;1.42;0.90;;;;;;;;;;5042552;28;20100;-56
2022/06/03 11:44:36;;;;;;;1.42;0.80;;;;;;;;;;5035890;28;20037;-55
2022/06/03 11:47:06;;;;;;;2.45;0.70;;;;;;;;;;5049656;28;20029;-56
2022/06/03 11:49:33;;;;;;;2.53;0.60;;;;;;;;;;5041916;28;20032;-55
2022/06/03 11:52:00;;;;;;;1.65;0.52;;;;;;;;;;5040643;28;20037;-55
2022/06/03 11:54:27;;;;;;;1.63;0.57;;;;;;;;;;5029030;28;20037;-56
2022/06/03 11:56:54;;;;;;;1.23;0.68;;;;;;;;;;5048016;28;20029;-55
2022/06/03 11:59:41;;;;;;;0.77;0.40;;;;;;;;;;5043274;28;20420;-55
2022/06/03 12:02:18;;;;;;;3.92;0.70;;;;;;;;;;5039329;28;20025;-56
2022/06/03 12:04:49;;;;;;;1.05;0.57;;;;;;;;;;5042440;28;20399;-56
2022/06/03 12:07:34;;;;;;;0.57;0.45;;;;;;;;;;5036974;28;20060;-56
2022/06/03 12:10:10;;;;;;;0.73;0.50;;;;;;;;;;5045006;28;20060;-56
2022/06/03 12:15:27;;;;;;;2.67;0.63;;;;;;;;;;5042055;28;20032;-55
2022/06/03 12:17:53;;;;;;;1.33;0.60;;;;;;;;;;5045794;28;20498;-56
2022/06/03 12:20:32;;;;;;;2.10;0.80;;;;;;;;;;5054921;28;20103;-56
2022/06/03 12:22:58;;;;;;;0.82;0.60;;;;;;;;;;5044694;28;20538;-55
2022/06/03 12:25:27;;;;;;;1.42;0.55;;;;;;;;;;5035708;28;20030;-56
2022/06/03 12:27:54;;;;;;;0.75;0.55;;;;;;;;;;5044489;28;20056;-55
2022/06/03 12:30:26;;;;;;;0.95;0.60;;;;;;;;;;5035338;28;20048;-55
2022/06/03 12:32:55;;;;;;;1.17;0.40;;;;;;;;;;5045336;28;20033;-56
2022/06/03 12:35:40;;;;;;;0.55;0.50;;;;;;;;;;5043852;28;20101;-56
2022/06/03 12:38:21;;;;;;;0.60;0.50;;;;;;;;;;5044363;28;20443;-57
2022/06/03 12:40:48;;;;;;;1.13;0.75;;;;;;;;;;5046530;28;20104;-56
2022/06/03 12:43:29;;;;;;;1.55;0.52;;;;;;;;;;5047347;28;20037;-56
2022/06/03 12:46:01;;;;;;;3.72;0.63;;;;;;;;;;5042103;28;20100;-57
2022/06/03 12:48:35;;;;;;;1.23;0.40;;;;;;;;;;5045975;28;20016;-56
2022/06/03 12:51:24;;;;;;;2.25;0.50;;;;;;;;;;5036563;28;20037;-56
2022/06/03 12:53:52;;;;;;;2.67;0.50;;;;;;;;;;5026879;28;20033;-55
2022/06/03 12:56:33;;;;;;;1.00;0.32;;;;;;;;;;5035874;28;20094;-56
2022/06/03 12:59:19;;;;;;;0.60;0.30;;;;;;;;;;5024462;28;20033;-55
2022/06/03 13:01:48;;;;;;;0.40;0.30;;;;;;;;;;5035179;28;20032;-56
2022/06/03 13:04:32;;;;;;;1.00;0.38;;;;;;;;;;5042274;28;20040;-56
2022/06/03 13:07:10;;;;;;;3.33;0.40;;;;;;;;;;5044986;28;20044;-56
2022/06/03 13:09:49;;;;;;;0.45;0.30;;;;;;;;;;5036568;28;20498;-56
2022/06/03 13:12:16;;;;;;;0.60;0.38;;;;;;;;;;5039042;28;20511;-55
2022/06/03 13:14:43;;;;;;;1.55;0.30;;;;;;;;;;5039269;28;20030;-53
2022/06/03 13:17:30;;;;;;;2.85;0.25;;;;;;;;;;5037499;28;20124;-54
2022/06/03 13:19:58;;;;;;;0.77;0.47;;;;;;;;;;5036362;28;20477;-54
2022/06/03 13:22:27;;;;;;;1.85;0.20;;;;;;;;;;5051658;28;20049;-54
2022/06/03 13:25:12;;;;;;;0.77;0.50;;;;;;;;;;5039810;28;20527;-55
2022/06/03 13:27:38;;;;;;;8.57;2.35;;;;;;;;;;5041040;28;20029;-54
2022/06/03 13:30:10;;;;;;;5.40;1.65;;;;;;;;;;5040435;28;20064;-54
2022/06/03 13:32:36;;;;;;;5.10;1.52;;;;;;;;;;5030866;28;20420;-55
2022/06/03 13:35:18;;;;;;;0.55;0.40;;;;;;;;;;5040392;28;20025;-55
2022/06/03 13:37:49;;;;;;;;;;;;;;;;;;5048501;28;20040;-55
2022/06/03 13:40:21;;;;;;;0.80;0.40;;;;;;;;;;5049208;28;20398;-55
2022/06/03 13:42:57;;;;;;;0.90;0.25;;;;;;;;;;5032546;28;20018;-54
2022/06/03 13:45:24;;;;;;;0.50;0.20;;;;;;;;;;5045014;28;20030;-54
2022/06/03 13:47:52;;;;;;;1.17;0.17;;;;;;;;;;5040486;28;20146;-55
2022/06/03 13:50:26;;;;;;;0.60;0.30;;;;;;;;;;5038210;28;20045;-54
2022/06/03 13:52:57;;;;;;;0.60;0.20;;;;;;;;;;5039421;28;20025;-54
2022/06/03 13:55:38;;;;;;;1.40;0.30;;;;;;;;;;5042068;28;20032;-55
2022/06/03 13:58:18;;;;;;;2.90;0.30;;;;;;;;;;5038231;28;20124;-54
2022/06/03 14:00:50;;;;;;;1.27;0.30;;;;;;;;;;5043504;28;20037;-54
2022/06/03 14:03:16;;;;;;;;;;;;;;;;;;5032805;28;20068;-55
2022/06/03 14:05:42;;;;;;;0.82;0.40;;;;;;;;;;5035576;28;19963;-55
2022/06/03 14:08:22;;;;;;;0.30;0.20;;;;;;;;;;5033472;28;20060;-54
2022/06/03 14:10:52;;;;;;;1.48;0.30;;;;;;;;;;5037477;28;20108;-55
2022/06/03 14:13:22;;;;;;;2.03;0.20;;;;;;;;;;5050612;28;20050;-55
2022/06/03 14:16:03;;;;;;;0.30;0.10;;;;;;;;;;5045985;28;20028;-55
2022/06/03 14:18:50;;;;;;;1.10;0.32;;;;;;;;;;5041973;28;20490;-54
2022/06/03 14:21:19;;;;;;;0.30;0.20;;;;;;;;;;5040920;28;20040;-57
2022/06/03 14:23:45;;;;;;;0.70;0.40;;;;;;;;;;5042908;28;20550;-55
2022/06/03 14:26:15;;;;;;;17.75;4.40;;;;;;;;;;5045545;28;20491;-55
2022/06/03 14:28:46;;;;;;;2.97;0.73;;;;;;;;;;5041436;28;20037;-54
2022/06/03 14:31:29;;;;;;;3.33;0.68;;;;;;;;;;5033853;28;20017;-54
2022/06/03 14:33:57;;;;;;;0.80;0.38;;;;;;;;;;5033861;28;20032;-55
2022/06/03 14:36:25;;;;;;;1.88;0.40;;;;;;;;;;5039933;28;20075;-55
2022/06/03 14:38:56;;;;;;;2.17;0.43;;;;;;;;;;5036167;28;20552;-54
2022/06/03 14:41:30;;;;;;;1.48;0.20;;;;;;;;;;5033530;28;20041;-54
2022/06/03 14:43:56;;;;;;;0.47;0.20;;;;;;;;;;5034842;28;20047;-55
2022/06/03 14:46:28;;;;;;;3.88;0.50;;;;;;;;;;5046912;28;20492;-56
2022/06/03 14:48:56;;;;;;;46.17;9.15;;;;;;;;;;5042888;28;20037;-55
2022/06/03 14:51:24;;;;;;;6.43;1.77;;;;;;;;;;5044822;28;20025;-56
2022/06/03 14:53:53;;;;;;;10.43;1.73;;;;;;;;;;5050647;28;20109;-55
2022/06/03 14:56:19;;;;;;;1.20;0.43;;;;;;;;;;5038957;28;20496;-55
2022/06/03 14:58:48;;;;;;;1.10;0.60;;;;;;;;;;5038800;28;20029;-55
2022/06/03 15:01:24;;;;;;;1.10;0.40;;;;;;;;;;5039696;28;20052;-56
2022/06/03 15:03:57;;;;;;;2.28;0.43;;;;;;;;;;5046797;28;20021;-56
2022/06/03 15:06:26;;;;;;;0.90;0.50;;;;;;;;;;5041938;28;20025;-55
2022/06/03 15:08:55;;;;;;;1.25;0.40;;;;;;;;;;5031508;28;20041;-51
2022/06/03 15:11:30;;;;;;;1.35;0.50;;;;;;;;;;5035053;28;20032;-56
2022/06/03 15:13:56;;;;;;;0.93;0.40;;;;;;;;;;5035026;28;20056;-55
2022/06/03 15:16:22;;;;;;;3.47;0.65;;;;;;;;;;5043041;28;20567;-55
2022/06/03 15:18:49;;;;;;;1.15;0.50;;;;;;;;;;5042417;28;20092;-54
2022/06/03 15:21:24;;;;;;;2.17;0.50;;;;;;;;;;5040565;28;20033;-55
2022/06/03 15:23:52;;;;;;;0.75;0.43;;;;;;;;;;5049559;28;20025;-55
2022/06/03 15:26:20;;;;;;;2.13;0.68;;;;;;;;;;5043043;28;20029;-53
2022/06/03 15:28:51;;;;;;;0.68;0.50;;;;;;;;;;5037146;28;20040;-55
2022/06/03 15:31:21;;;;;;;0.90;0.65;;;;;;;;;;5043208;28;20037;-55
2022/06/03 15:33:53;;;;;;;1.52;0.70;;;;;;;;;;5048761;28;20040;-55
2022/06/03 15:36:20;;;;;;;1.52;0.60;;;;;;;;;;5032960;28;20079;-56
2022/06/03 15:38:48;;;;;;;1.23;0.50;;;;;;;;;;5039575;28;20029;-55
2022/06/03 15:41:19;;;;;;;1.10;0.68;;;;;;;;;;5048812;28;20392;-55
2022/06/03 15:43:47;;;;;;;1.00;0.57;;;;;;;;;;5041201;28;20018;-55
2022/06/03 15:46:29;;;;;;;1.23;0.55;;;;;;;;;;5041107;28;20037;-55
2022/06/03 15:48:57;;;;;;;0.90;0.70;;;;;;;;;;5044376;28;20025;-55
2022/06/03 15:51:23;;;;;;;0.70;0.60;;;;;;;;;;5036069;28;20026;-56
2022/06/03 15:53:52;;;;;;;0.85;0.75;;;;;;;;;;5039464;28;20067;-55
2022/06/03 15:56:54;;;;;;;0.55;0.50;;;;;;;;;;5034087;28;20109;-55
2022/06/03 15:59:38;;;;;;;1.67;0.60;;;;;;;;;;4949635;28;20063;-55
2022/06/03 16:02:24;;;;;;;1.10;0.65;;;;;;;;;;5012151;28;20041;-55